LPFR Airport Information

Runway Information
Runway 10 Length 8169 ft width 148 ft
Elevation 24 ft Threshold 148 ft Heading 100
Runway 28 Length 8169 ft Width 148 ft
Elevation 18 ft Threshold 148 ft Heading 280
Airport Frequencies
Type APP Name APP Frequency 119.4 MHZ
Type ATIS Name ATIS Frequency 124.2 MHZ
Type GND Name GND Frequency 118.575 MHZ
Type TWR Name TWR Frequency 118.2 MHZ
Airport Navaids
Type NDB Name Faro Frequency 332 KHZ
Type VOR-DME Name Faro Frequency 112800 KHZ
Airport Weather Information & NOTAM
ADDS - METARS form results

(0655 UTC 22 April 2018)
 
METAR text: LPFR 220630Z 03004KT 360V080 6000 -DZ SCT025 BKN032 17/15 Q1013
Conditions at: LPFR (FARO , PT) observed 0630 UTC 22 April 2018
Temperature: 17.0°C (63°F)
Dewpoint: 15.0°C (59°F) [RH = 88%]
Pressure (altimeter): 29.91 inches Hg (1013.0 mb)
Winds: from the NNE (30 degrees) at 5 MPH (4 knots; 2.1 m/s)
Visibility: 4 miles (6 km)
Ceiling: 3200 feet AGL
Clouds: scattered clouds at 2500 feet AGL
broken clouds at 3200 feet AGL
Weather: -DZ  (light drizzle)

METAR text: LPFR 220600Z 02005KT 6000 -DZ SCT025 BKN032 17/15 Q1012
Conditions at: LPFR (FARO , PT) observed 0600 UTC 22 April 2018
Temperature: 17.0°C (63°F)
Dewpoint: 15.0°C (59°F) [RH = 88%]
Pressure (altimeter): 29.88 inches Hg (1012.0 mb)
Winds: from the NNE (20 degrees) at 6 MPH (5 knots; 2.6 m/s)
Visibility: 4 miles (6 km)
Ceiling: 3200 feet AGL
Clouds: scattered clouds at 2500 feet AGL
broken clouds at 3200 feet AGL
Weather: -DZ  (light drizzle)